Time;durP1;ratioP1;P1;durP2;ratioP2;P2;SDS_P1;SDS_P2;PMS_P1;PMS_P2;Temp;Humidity;BMP_temperature;BMP_pressure;BME280_temperature;BME280_humidity;BME280_pressure;Samples;Min_cycle;Max_cycle;Signal;HPM_P1;HPM_P2
2023/01/22 00:00:57;;;;;;;35.60;16.30;;;;;;;1.91;100.00;101586.46;105301;1259;99177;-75
2023/01/22 00:03:43;;;;;;;31.90;16.90;;;;;;;1.90;100.00;101584.77;105434;1257;98085;-75
2023/01/22 00:06:28;;;;;;;31.50;16.50;;;;;;;1.89;100.00;101587.62;105356;1257;102618;-75
2023/01/22 00:09:14;;;;;;;27.70;14.40;;;;;;;1.90;100.00;101587.08;105476;1259;99224;-74
2023/01/22 00:12:00;;;;;;;28.80;16.00;;;;;;;1.90;100.00;101586.49;105168;1256;106769;-73
2023/01/22 00:14:47;;;;;;;31.30;15.40;;;;;;;1.91;100.00;101589.45;105300;1259;97901;-74
2023/01/22 00:17:32;;;;;;;33.90;15.80;;;;;;;1.91;100.00;101596.66;105330;1256;98383;-75
2023/01/22 00:20:18;;;;;;;30.70;15.90;;;;;;;1.91;100.00;101600.55;105430;1257;102597;-74
2023/01/22 00:23:04;;;;;;;28.50;15.60;;;;;;;1.90;100.00;101599.40;105298;1256;100293;-74
2023/01/22 00:25:59;;;;;;;28.40;15.90;;;;;;;1.89;100.00;101602.08;105266;1256;98015;-74
2023/01/22 00:28:44;;;;;;;29.50;15.90;;;;;;;1.89;100.00;101601.38;105299;1259;97969;-74
2023/01/22 00:31:30;;;;;;;28.40;15.70;;;;;;;1.89;100.00;101603.84;105277;1256;97889;-74
2023/01/22 00:34:15;;;;;;;25.30;14.50;;;;;;;1.89;100.00;101607.91;105301;1257;101483;-74
2023/01/22 00:37:01;;;;;;;28.30;15.90;;;;;;;1.88;100.00;101605.64;105321;1256;100028;-74
2023/01/22 00:39:46;;;;;;;28.20;15.00;;;;;;;1.88;100.00;101610.04;105332;1259;98602;-74
2023/01/22 00:42:32;;;;;;;27.70;14.40;;;;;;;1.87;100.00;101614.37;105673;1255;97948;-74
2023/01/22 00:45:17;;;;;;;30.70;15.80;;;;;;;1.86;100.00;101616.21;105337;1259;98485;-74
2023/01/22 00:48:03;;;;;;;27.80;14.80;;;;;;;1.86;100.00;101613.02;105309;1268;101501;-74
2023/01/22 00:50:49;;;;;;;28.00;14.70;;;;;;;1.87;100.00;101619.48;105374;1259;100401;-74
2023/01/22 00:53:36;;;;;;;29.40;15.90;;;;;;;1.87;100.00;101623.02;105365;1257;97978;-75
2023/01/22 00:56:21;;;;;;;26.90;14.70;;;;;;;1.87;100.00;101623.52;105353;1259;99614;-75
2023/01/22 00:59:09;;;;;;;26.10;14.20;;;;;;;1.87;100.00;101623.50;105376;1257;99155;-74
2023/01/22 01:01:55;;;;;;;29.90;16.10;;;;;;;1.88;100.00;101629.14;105192;1261;102373;-74
2023/01/22 01:04:40;;;;;;;27.30;14.60;;;;;;;1.87;100.00;101633.61;105454;1256;99267;-74
2023/01/22 01:07:25;;;;;;;22.80;11.80;;;;;;;1.87;100.00;101638.70;105273;1257;99307;-74
2023/01/22 01:10:11;;;;;;;24.30;13.50;;;;;;;1.87;100.00;101642.71;105214;1259;97968;-74
2023/01/22 01:12:56;;;;;;;26.30;14.70;;;;;;;1.87;100.00;101644.52;105358;1259;97926;-75
2023/01/22 01:15:42;;;;;;;24.70;13.60;;;;;;;1.86;100.00;101649.30;105636;1257;101324;-75
2023/01/22 01:18:28;;;;;;;28.30;13.50;;;;;;;1.86;100.00;101645.64;105318;1256;100296;-73
2023/01/22 01:21:15;;;;;;;23.00;13.00;;;;;;;1.84;100.00;101645.77;105303;1261;99161;-75
2023/01/22 01:24:01;;;;;;;24.40;13.40;;;;;;;1.82;100.00;101647.47;105332;1255;98277;-75
2023/01/22 01:26:47;;;;;;;25.50;13.70;;;;;;;1.82;100.00;101645.89;105313;1257;98383;-75
2023/01/22 01:29:32;;;;;;;24.90;14.10;;;;;;;1.82;100.00;101645.70;105316;1259;101318;-75
2023/01/22 01:32:17;;;;;;;27.60;14.70;;;;;;;1.83;100.00;101644.80;105236;1259;100203;-75
2023/01/22 01:35:04;;;;;;;27.80;14.40;;;;;;;1.82;100.00;101648.52;105348;1258;99544;-76
2023/01/22 01:37:51;;;;;;;26.80;13.80;;;;;;;1.82;100.00;101646.25;105472;1259;99234;-74
2023/01/22 01:40:42;;;;;;;27.10;13.80;;;;;;;1.82;100.00;101646.64;105336;1259;98419;-73
2023/01/22 01:43:28;;;;;;;24.10;12.40;;;;;;;1.81;100.00;101645.27;105207;1261;101858;-74
2023/01/22 01:46:22;;;;;;;21.60;11.90;;;;;;;1.81;100.00;101646.14;105477;1257;100323;-77
2023/01/22 01:49:15;;;;;;;23.10;13.30;;;;;;;1.81;100.00;101648.98;105355;1256;97864;-75
2023/01/22 01:52:09;;;;;;;26.00;13.50;;;;;;;1.80;100.00;101652.16;105267;1257;98042;-76
2023/01/22 01:54:56;;;;;;;23.90;13.20;;;;;;;1.79;100.00;101654.54;105665;1258;97944;-75
2023/01/22 01:57:42;;;;;;;27.80;14.00;;;;;;;1.80;100.00;101658.92;105268;1259;102619;-73
2023/01/22 02:00:33;;;;;;;23.50;13.10;;;;;;;1.80;100.00;101662.27;105320;1257;100811;-74
2023/01/22 02:03:19;;;;;;;24.40;13.10;;;;;;;1.79;100.00;101662.29;105266;1259;97985;-75
2023/01/22 02:06:05;;;;;;;24.20;13.60;;;;;;;1.79;100.00;101670.38;105310;1259;98687;-74
2023/01/22 02:08:52;;;;;;;24.00;13.60;;;;;;;1.80;100.00;101672.09;105343;1259;97960;-74
2023/01/22 02:11:39;;;;;;;20.60;12.60;;;;;;;1.82;100.00;101674.63;105276;1259;102593;-75
2023/01/22 02:14:32;;;;;;;22.20;12.50;;;;;;;1.81;100.00;101675.73;105329;1256;100364;-73
2023/01/22 02:17:20;;;;;;;19.50;12.30;;;;;;;1.81;100.00;101679.94;105218;1259;97983;-74
2023/01/22 02:20:10;;;;;;;22.00;13.00;;;;;;;1.82;100.00;101679.55;105593;1259;97960;-75
2023/01/22 02:22:55;;;;;;;26.90;13.60;;;;;;;1.82;100.00;101678.81;106159;1258;98606;-75
2023/01/22 02:25:41;;;;;;;26.00;14.10;;;;;;;1.84;100.00;101680.66;105304;1259;102490;-76
2023/01/22 02:28:29;;;;;;;22.60;14.00;;;;;;;1.84;100.00;101680.95;105328;1257;99374;-76
2023/01/22 02:31:15;;;;;;;21.40;12.90;;;;;;;1.85;100.00;101679.86;105294;1257;98285;-75
2023/01/22 02:34:01;;;;;;;23.70;13.10;;;;;;;1.85;100.00;101677.52;105238;1256;98508;-76
2023/01/22 02:36:47;;;;;;;21.80;13.90;;;;;;;1.85;100.00;101680.34;105417;1256;97954;-75
2023/01/22 02:39:33;;;;;;;21.80;13.00;;;;;;;1.86;100.00;101681.87;105408;1256;102199;-76
2023/01/22 02:42:20;;;;;;;23.40;12.50;;;;;;;1.86;100.00;101679.63;105510;1257;100531;-76
2023/01/22 02:45:06;;;;;;;21.90;13.20;;;;;;;1.85;100.00;101675.63;105562;1257;99235;-74
2023/01/22 02:47:52;;;;;;;22.60;13.60;;;;;;;1.83;100.00;101676.66;105509;1260;98060;-74
2023/01/22 02:50:38;;;;;;;25.20;12.90;;;;;;;1.80;100.00;101677.91;105255;1255;98492;-73
2023/01/22 02:53:23;;;;;;;21.50;13.80;;;;;;;1.78;100.00;101679.26;105458;1259;101334;-76
2023/01/22 02:56:10;;;;;;;21.90;12.70;;;;;;;1.79;100.00;101681.02;105278;1259;100370;-75
2023/01/22 02:58:59;;;;;;;21.70;13.70;;;;;;;1.79;100.00;101685.55;105660;1259;98106;-74
2023/01/22 03:01:44;;;;;;;21.80;13.80;;;;;;;1.77;100.00;101690.62;105544;1257;98133;-75
2023/01/22 03:04:29;;;;;;;20.70;12.90;;;;;;;1.77;100.00;101691.34;105306;1256;97849;-72
2023/01/22 03:07:16;;;;;;;22.30;13.50;;;;;;;1.77;100.00;101690.83;105355;1257;101310;-74
2023/01/22 03:10:01;;;;;;;25.30;13.90;;;;;;;1.77;100.00;101691.30;105389;1273;99053;-74
2023/01/22 03:22:02;;;;;;;23.10;13.30;;;;;;;1.77;100.00;101714.56;105366;1259;101453;-75
2023/01/22 03:24:51;;;;;;;19.50;12.90;;;;;;;1.78;100.00;101719.23;105269;1259;99672;-75
2023/01/22 03:28:07;;;;;;;;;;;;;;;1.81;100.00;101721.36;105605;1257;98024;-74
2023/01/22 03:30:44;;;;;;;22.20;12.50;;;;;;;1.81;100.00;101728.41;105200;1261;97951;-74
2023/01/22 03:33:31;;;;;;;20.20;12.20;;;;;;;1.81;100.00;101727.34;105277;1260;99782;-74
2023/01/22 03:36:16;;;;;;;20.50;13.00;;;;;;;1.82;100.00;101732.22;105497;1259;101370;-73
2023/01/22 03:39:05;;;;;;;21.50;12.60;;;;;;;1.82;100.00;101733.06;105280;1257;99511;-75
2023/01/22 03:41:51;;;;;;;19.30;12.30;;;;;;;1.80;100.00;101734.41;105206;1259;97956;-75
2023/01/22 03:44:36;;;;;;;22.00;13.20;;;;;;;1.81;100.00;101734.05;105228;1255;98056;-74
2023/01/22 03:47:22;;;;;;;21.20;13.30;;;;;;;1.81;100.00;101735.64;105285;1259;98438;-76
2023/01/22 03:50:08;;;;;;;19.90;12.40;;;;;;;1.79;100.00;101741.86;105236;1256;101480;-74
2023/01/22 03:52:56;;;;;;;22.60;13.00;;;;;;;1.78;100.00;101742.83;105262;1259;100278;-74
2023/01/22 03:55:42;;;;;;;20.60;14.00;;;;;;;1.78;100.00;101742.67;105297;1259;99744;-75
2023/01/22 03:58:29;;;;;;;20.30;12.50;;;;;;;1.78;100.00;101741.79;105356;1257;98089;-74
2023/01/22 04:01:17;;;;;;;23.60;13.80;;;;;;;1.79;100.00;101736.42;105281;1256;99788;-75
2023/01/22 04:04:03;;;;;;;18.80;12.40;;;;;;;1.79;100.00;101740.70;105135;1256;102281;-74
2023/01/22 04:06:50;;;;;;;21.10;12.70;;;;;;;1.78;100.00;101747.60;105246;1259;99154;-75
2023/01/22 04:09:35;;;;;;;21.80;13.80;;;;;;;1.78;100.00;101754.81;105310;1259;97987;-75
2023/01/22 04:12:21;;;;;;;19.60;12.60;;;;;;;1.78;100.00;101756.79;105226;1257;97963;-75
2023/01/22 04:15:07;;;;;;;20.40;12.60;;;;;;;1.78;100.00;101760.80;105349;1259;98014;-73
2023/01/22 04:17:52;;;;;;;19.70;12.70;;;;;;;1.79;100.00;101762.36;105571;1260;102213;-73
2023/01/22 04:21:08;;;;;;;18.90;12.40;;;;;;;1.77;100.00;101759.11;105280;1259;99059;-73
2023/01/22 04:24:00;;;;;;;21.50;13.20;;;;;;;1.75;100.00;101752.91;105302;1256;98440;-75
2023/01/22 04:26:46;;;;;;;21.40;13.70;;;;;;;1.74;100.00;101747.88;105299;1260;97961;-74
2023/01/22 04:29:34;;;;;;;17.40;11.20;;;;;;;1.73;100.00;101747.95;105229;1257;98455;-74
2023/01/22 04:32:20;;;;;;;19.20;13.00;;;;;;;1.73;100.00;101749.19;105503;1259;101457;-76
2023/01/22 04:35:38;;;;;;;20.60;12.60;;;;;;;1.72;100.00;101749.95;105143;1262;100999;-76
2023/01/22 04:38:25;;;;;;;18.70;12.90;;;;;;;1.72;100.00;101756.11;105296;1257;97858;-76
2023/01/22 04:41:10;;;;;;;23.20;12.80;;;;;;;1.71;100.00;101754.80;105252;1257;99183;-76
2023/01/22 04:43:56;;;;;;;20.00;12.30;;;;;;;1.69;100.00;101760.69;105217;1261;97952;-76
2023/01/22 04:46:43;;;;;;;22.90;13.50;;;;;;;1.70;100.00;101767.88;105324;1259;101345;-75
2023/01/22 04:49:30;;;;;;;19.50;13.30;;;;;;;1.70;100.00;101773.88;105239;1263;99802;-76
2023/01/22 04:52:17;;;;;;;18.00;11.10;;;;;;;1.70;100.00;101775.29;105249;1257;97963;-73
2023/01/22 04:55:03;;;;;;;18.50;11.80;;;;;;;1.70;100.00;101777.20;105315;1257;98548;-73
2023/01/22 04:57:59;;;;;;;20.90;12.10;;;;;;;1.70;100.00;101778.59;105269;1259;97746;-73
2023/01/22 05:00:45;;;;;;;19.70;12.40;;;;;;;1.71;100.00;101785.06;105104;1259;102234;-73
2023/01/22 05:03:31;;;;;;;15.60;10.70;;;;;;;1.71;100.00;101785.75;105443;1257;99267;-75
2023/01/22 05:06:17;;;;;;;19.50;11.70;;;;;;;1.72;100.00;101788.16;105174;1255;99221;-75
2023/01/22 05:09:02;;;;;;;20.50;12.60;;;;;;;1.72;100.00;101787.64;105230;1259;97975;-74
2023/01/22 05:11:53;;;;;;;17.20;11.00;;;;;;;1.71;100.00;101791.73;105226;1269;98466;-75
2023/01/22 05:14:39;;;;;;;19.30;11.90;;;;;;;1.70;100.00;101792.36;105236;1259;101375;-74
2023/01/22 05:17:24;;;;;;;17.90;12.00;;;;;;;1.69;100.00;101791.38;105259;1259;100333;-75
2023/01/22 05:20:10;;;;;;;17.80;10.40;;;;;;;1.68;100.00;101791.75;105245;1257;98129;-75
2023/01/22 05:22:55;;;;;;;19.10;12.20;;;;;;;1.67;100.00;101794.81;105254;1259;97977;-74
2023/01/22 05:25:48;;;;;;;20.70;12.60;;;;;;;1.66;100.00;101796.84;105140;1255;98478;-74
2023/01/22 05:28:34;;;;;;;21.70;12.00;;;;;;;1.65;100.00;101798.15;105231;1261;102592;-74
2023/01/22 05:31:29;;;;;;;18.50;11.00;;;;;;;1.64;100.00;101796.64;105190;1257;99403;-75
2023/01/22 05:34:19;;;;;;;17.60;11.40;;;;;;;1.63;100.00;101794.40;105218;1257;98940;-74
2023/01/22 05:37:05;;;;;;;19.60;11.80;;;;;;;1.62;100.00;101794.96;105524;1262;97959;-76
2023/01/22 05:39:53;;;;;;;19.50;12.20;;;;;;;1.62;100.00;101797.98;105257;1257;98475;-76
2023/01/22 05:42:39;;;;;;;22.40;11.40;;;;;;;1.61;100.00;101805.77;105195;1270;101402;-76
2023/01/22 05:45:26;;;;;;;17.70;11.10;;;;;;;1.60;100.00;101809.55;105455;1256;100148;-76
2023/01/22 05:48:31;;;;;;;18.40;11.20;;;;;;;1.60;100.00;101815.02;105189;1270;99391;-76
2023/01/22 05:51:29;;;;;;;16.90;11.50;;;;;;;1.60;100.00;101811.50;105182;1261;97889;-75
2023/01/22 05:54:14;;;;;;;20.00;10.90;;;;;;;1.61;100.00;101812.34;105177;1260;98256;-75
2023/01/22 05:57:02;;;;;;;18.90;11.90;;;;;;;1.62;100.00;101816.86;105156;1256;102586;-74
2023/01/22 05:59:48;;;;;;;16.90;10.90;;;;;;;1.61;100.00;101818.14;105240;1261;99530;-74
2023/01/22 06:02:34;;;;;;;18.50;12.30;;;;;;;1.60;100.00;101820.32;105178;1261;98909;-74
2023/01/22 06:05:20;;;;;;;22.30;13.10;;;;;;;1.61;100.00;101826.05;105193;1257;99222;-75
2023/01/22 06:08:07;;;;;;;22.30;12.10;;;;;;;1.62;100.00;101831.98;105489;1262;97956;-75
2023/01/22 06:10:59;;;;;;;18.00;11.10;;;;;;;1.64;100.00;101833.27;105492;1257;102960;-76
2023/01/22 06:13:47;;;;;;;19.60;11.60;;;;;;;1.65;100.00;101839.01;105210;1257;99237;-75
2023/01/22 06:16:39;;;;;;;18.80;10.30;;;;;;;1.66;100.00;101841.57;105250;1257;98977;-74
2023/01/22 06:19:29;;;;;;;19.00;11.90;;;;;;;1.66;100.00;101841.05;105188;1256;99270;-76
2023/01/22 06:22:15;;;;;;;17.70;11.30;;;;;;;1.65;100.00;101842.70;106097;1259;95900;-76
2023/01/22 06:25:08;;;;;;;18.10;11.50;;;;;;;1.65;100.00;101847.65;105249;1259;102744;-75
2023/01/22 06:28:11;;;;;;;19.50;11.20;;;;;;;1.64;100.00;101852.45;105426;1259;99195;-76
2023/01/22 06:31:04;;;;;;;18.40;12.30;;;;;;;1.63;100.00;101852.15;105383;1260;99240;-74
2023/01/22 06:33:52;;;;;;;16.50;11.20;;;;;;;1.63;100.00;101853.55;105309;1259;97941;-75
2023/01/22 06:36:37;;;;;;;20.20;11.20;;;;;;;1.63;100.00;101854.77;105438;1259;97942;-74
2023/01/22 06:39:23;;;;;;;19.10;12.10;;;;;;;1.63;100.00;101853.04;105589;1259;102731;-76
2023/01/22 06:42:19;;;;;;;23.10;12.00;;;;;;;1.63;100.00;101860.08;105351;1259;100392;-75
2023/01/22 06:45:05;;;;;;;17.60;10.90;;;;;;;1.64;100.00;101859.84;105564;1257;97983;-75
2023/01/22 06:47:51;;;;;;;19.50;11.50;;;;;;;1.64;100.00;101863.19;105238;1260;99240;-76
2023/01/22 06:50:36;;;;;;;22.80;12.50;;;;;;;1.64;100.00;101871.30;105255;1262;98047;-76
2023/01/22 06:53:22;;;;;;;17.90;11.50;;;;;;;1.64;100.00;101878.66;105393;1257;102690;-74
2023/01/22 06:56:07;;;;;;;16.70;10.20;;;;;;;1.65;100.00;101881.92;105331;1256;99247;-73
2023/01/22 06:58:53;;;;;;;17.00;10.30;;;;;;;1.66;100.00;101884.89;105362;1261;97972;-75
2023/01/22 07:01:38;;;;;;;20.90;11.70;;;;;;;1.66;100.00;101893.54;105251;1259;97948;-74
2023/01/22 07:04:24;;;;;;;16.90;10.70;;;;;;;1.66;100.00;101897.94;105269;1256;97981;-75
2023/01/22 07:07:10;;;;;;;18.00;11.80;;;;;;;1.67;100.00;101899.59;105275;1261;101351;-75
2023/01/22 07:09:55;;;;;;;17.00;11.30;;;;;;;1.70;100.00;101901.15;105435;1258;99639;-75
2023/01/22 07:12:41;;;;;;;16.30;10.90;;;;;;;1.72;100.00;101905.80;105254;1260;98672;-74
2023/01/22 07:15:26;;;;;;;18.80;10.60;;;;;;;1.72;100.00;101905.61;105469;1260;98081;-76
2023/01/22 07:18:13;;;;;;;15.70;10.90;;;;;;;1.71;100.00;101906.38;105244;1259;97903;-76
2023/01/22 07:21:00;;;;;;;18.60;11.50;;;;;;;1.71;100.00;101909.21;105287;1259;101339;-76
2023/01/22 07:23:46;;;;;;;17.80;11.20;;;;;;;1.71;100.00;101912.20;105315;1257;99072;-76
2023/01/22 07:26:32;;;;;;;18.50;11.40;;;;;;;1.71;100.00;101914.98;105307;1259;99970;-76
2023/01/22 07:29:17;;;;;;;16.70;11.10;;;;;;;1.72;100.00;101917.91;105260;1261;98079;-76
2023/01/22 07:32:03;;;;;;;16.60;10.60;;;;;;;1.74;100.00;101918.72;105261;1259;98422;-73
2023/01/22 07:34:48;;;;;;;20.70;11.80;;;;;;;1.74;100.00;101918.87;105325;1259;102794;-74
2023/01/22 07:37:35;;;;;;;17.20;10.30;;;;;;;1.74;100.00;101929.08;105283;1257;100545;-75
2023/01/22 07:40:23;;;;;;;15.90;10.20;;;;;;;1.74;100.00;101933.86;105268;1259;98072;-75
2023/01/22 07:43:09;;;;;;;15.80;10.50;;;;;;;1.73;100.00;101935.86;105321;1260;98642;-74
2023/01/22 07:45:56;;;;;;;16.80;10.30;;;;;;;1.72;100.00;101937.30;105301;1259;98415;-76
2023/01/22 07:48:42;;;;;;;14.80;10.40;;;;;;;1.73;100.00;101939.05;105615;1259;101399;-74
2023/01/22 07:51:27;;;;;;;26.40;13.00;;;;;;;1.75;100.00;101940.61;105329;1257;100862;-74
2023/01/22 07:54:13;;;;;;;16.50;10.50;;;;;;;1.77;100.00;101940.83;105350;1261;99472;-75
2023/01/22 07:56:58;;;;;;;16.90;10.70;;;;;;;1.78;100.00;101946.27;105349;1260;97881;-75
2023/01/22 07:59:44;;;;;;;36.80;18.00;;;;;;;1.79;100.00;101946.40;105351;1259;98483;-75
2023/01/22 08:02:30;;;;;;;19.20;13.00;;;;;;;1.80;100.00;101951.02;105318;1257;102576;-75
2023/01/22 08:05:16;;;;;;;20.90;12.70;;;;;;;1.81;100.00;101948.67;105317;1259;100398;-75
2023/01/22 08:08:01;;;;;;;16.10;10.20;;;;;;;1.81;100.00;101949.23;105301;1260;98691;-75
2023/01/22 08:10:47;;;;;;;20.70;12.70;;;;;;;1.80;100.00;101952.62;105304;1260;97960;-75
2023/01/22 08:13:33;;;;;;;17.70;11.00;;;;;;;1.81;100.00;101952.42;105339;1275;99728;-75
2023/01/22 08:16:19;;;;;;;19.50;12.10;;;;;;;1.81;100.00;101952.58;105324;1260;102010;-75
2023/01/22 08:19:04;;;;;;;16.40;10.80;;;;;;;1.82;100.00;101954.63;105411;1260;109814;-76
2023/01/22 08:21:49;;;;;;;17.80;11.00;;;;;;;1.82;100.00;101959.38;105450;1264;97964;-76
2023/01/22 08:24:35;;;;;;;15.90;11.10;;;;;;;1.83;100.00;101960.40;105373;1259;97928;-76
2023/01/22 08:27:21;;;;;;;17.70;11.60;;;;;;;1.81;100.00;101959.27;105421;1261;97842;-76
2023/01/22 08:30:10;;;;;;;19.50;11.70;;;;;;;1.82;100.00;101966.98;105516;1261;102340;-75
2023/01/22 08:32:55;;;;;;;21.30;13.00;;;;;;;1.81;100.00;101966.14;105227;1260;101565;-75
2023/01/22 08:35:40;;;;;;;18.30;11.80;;;;;;;1.81;100.00;101968.04;105306;1260;98995;-75
2023/01/22 08:38:26;;;;;;;31.70;18.90;;;;;;;1.82;100.00;101973.79;105284;1260;98040;-75
2023/01/22 08:41:11;;;;;;;17.50;12.70;;;;;;;1.83;100.00;101976.40;105343;1259;98198;-74
2023/01/22 08:43:57;;;;;;;20.70;11.90;;;;;;;1.85;100.00;101978.90;105463;1260;101333;-75
2023/01/22 08:46:42;;;;;;;19.20;12.20;;;;;;;1.85;100.00;101979.59;105391;1260;100266;-76
2023/01/22 08:49:29;;;;;;;18.50;12.20;;;;;;;1.86;100.00;101985.01;105323;1268;98834;-75
2023/01/22 08:52:15;;;;;;;20.30;11.60;;;;;;;1.86;100.00;101986.74;105215;1259;97959;-75
2023/01/22 08:55:01;;;;;;;19.20;12.30;;;;;;;1.86;100.00;101990.30;105431;1260;98737;-75
2023/01/22 08:57:52;;;;;;;19.80;12.70;;;;;;;1.86;100.00;101995.17;105297;1260;101339;-74
2023/01/22 09:00:38;;;;;;;;;;;;;;;1.87;100.00;101995.29;105904;1257;99092;-74
2023/01/22 09:03:23;;;;;;;18.50;12.00;;;;;;;1.88;100.00;102000.00;105386;1259;99404;-75
2023/01/22 09:06:09;;;;;;;21.20;12.10;;;;;;;1.90;100.00;101999.55;105394;1258;98546;-75
2023/01/22 09:08:55;;;;;;;20.10;12.10;;;;;;;1.91;100.00;102003.35;105305;1259;98475;-75
2023/01/22 09:11:41;;;;;;;21.70;12.50;;;;;;;1.92;100.00;102006.63;105205;1257;101322;-74
2023/01/22 09:14:26;;;;;;;19.50;13.50;;;;;;;1.93;100.00;102009.02;105306;1269;99114;-74
2023/01/22 09:17:12;;;;;;;20.70;13.60;;;;;;;1.95;100.00;102015.09;105178;1262;98960;-74
2023/01/22 09:19:57;;;;;;;22.50;13.10;;;;;;;1.95;100.00;102023.51;105286;1259;98090;-75
2023/01/22 09:22:44;;;;;;;19.60;12.90;;;;;;;1.97;100.00;102028.34;105299;1260;98619;-74
2023/01/22 09:25:30;;;;;;;23.50;14.40;;;;;;;1.98;100.00;102031.61;105319;1257;101446;-77
2023/01/22 09:28:15;;;;;;;27.00;16.70;;;;;;;1.99;100.00;102033.12;105296;1258;101278;-74
2023/01/22 09:31:01;;;;;;;35.40;24.20;;;;;;;2.01;100.00;102032.30;105220;1259;99003;-73
2023/01/22 09:33:46;;;;;;;28.50;16.80;;;;;;;2.01;100.00;102030.34;105325;1259;97962;-75
2023/01/22 09:36:32;;;;;;;24.20;14.00;;;;;;;2.02;100.00;102030.47;105370;1260;97960;-75
2023/01/22 09:39:17;;;;;;;24.10;13.50;;;;;;;2.02;100.00;102034.68;105185;1258;102569;-75
2023/01/22 09:42:06;;;;;;;23.10;14.70;;;;;;;2.03;100.00;102035.85;105320;1269;100334;-76
2023/01/22 09:44:58;;;;;;;26.30;14.90;;;;;;;2.05;100.00;102030.27;105353;1257;98953;-76
2023/01/22 09:47:48;;;;;;;23.90;13.60;;;;;;;2.05;100.00;102032.02;105373;1260;99354;-75
2023/01/22 09:50:33;;;;;;;22.80;14.00;;;;;;;2.05;100.00;102029.55;105528;1256;98486;-75
2023/01/22 09:53:20;;;;;;;23.60;13.80;;;;;;;2.07;100.00;102024.72;105272;1260;101465;-75
2023/01/22 09:56:11;;;;;;;23.00;13.40;;;;;;;2.06;100.00;102023.14;105275;1260;99114;-75
2023/01/22 09:58:58;;;;;;;23.10;14.70;;;;;;;2.04;100.00;102024.13;105426;1260;99034;-75
2023/01/22 10:02:07;;;;;;;21.90;13.50;;;;;;;2.04;100.00;102026.09;105344;1265;98056;-73
2023/01/22 10:04:59;;;;;;;23.60;13.10;;;;;;;2.03;100.00;102029.30;105330;1259;99648;-74
2023/01/22 10:07:56;;;;;;;21.60;13.60;;;;;;;2.03;100.00;102029.19;105376;1259;101365;-75
2023/01/22 10:10:42;;;;;;;22.10;13.40;;;;;;;2.04;100.00;102030.01;105286;1260;100102;-74
2023/01/22 10:13:37;;;;;;;24.30;14.10;;;;;;;2.04;100.00;102031.22;105121;1260;98975;-75
2023/01/22 10:16:23;;;;;;;24.10;13.70;;;;;;;2.04;100.00;102030.16;105246;1261;99123;-75
2023/01/22 10:19:28;;;;;;;19.90;11.80;;;;;;;2.06;100.00;102031.98;105365;1260;99623;-73
2023/01/22 10:22:25;;;;;;;25.90;15.50;;;;;;;2.06;100.00;102033.20;105241;1256;102687;-75
2023/01/22 10:25:13;;;;;;;21.40;13.30;;;;;;;2.05;100.00;102032.39;105318;1260;99166;-74
2023/01/22 10:28:00;;;;;;;20.90;13.80;;;;;;;2.04;100.00;102034.89;105300;1260;97982;-74
2023/01/22 10:30:47;;;;;;;24.60;14.00;;;;;;;2.05;100.00;102028.70;105471;1258;98041;-76
2023/01/22 10:33:37;;;;;;;18.60;12.30;;;;;;;2.06;100.00;102025.61;105500;1260;97967;-75
2023/01/22 10:36:22;;;;;;;21.00;13.50;;;;;;;2.06;100.00;102025.08;105302;1270;101387;-76
2023/01/22 10:39:13;;;;;;;21.80;13.70;;;;;;;2.06;100.00;102021.75;105215;1260;100592;-75
2023/01/22 10:42:00;;;;;;;24.30;14.80;;;;;;;2.06;100.00;102019.08;105241;1261;97864;-75
2023/01/22 10:44:46;;;;;;;22.40;13.60;;;;;;;2.07;100.00;102015.86;105263;1257;97903;-75
2023/01/22 10:47:31;;;;;;;24.70;12.90;;;;;;;2.07;100.00;102019.91;105106;1258;98031;-76
2023/01/22 10:50:18;;;;;;;24.70;13.50;;;;;;;2.06;100.00;102018.72;105226;1260;102595;-74
2023/01/22 10:53:04;;;;;;;22.00;13.00;;;;;;;2.08;100.00;102020.59;105344;1259;99938;-76
2023/01/22 10:55:53;;;;;;;21.60;14.00;;;;;;;2.11;100.00;102019.89;105271;1258;97956;-75
2023/01/22 10:58:46;;;;;;;25.00;13.60;;;;;;;2.11;100.00;102019.31;105292;1259;97974;-76
2023/01/22 11:01:35;;;;;;;24.20;14.50;;;;;;;2.12;100.00;102017.13;105294;1257;98036;-75
2023/01/22 11:04:24;;;;;;;24.20;13.80;;;;;;;2.13;100.00;102017.64;105280;1261;103220;-75
2023/01/22 11:07:29;;;;;;;23.80;13.30;;;;;;;2.13;100.00;102019.01;105341;1257;99963;-75
2023/01/22 11:10:29;;;;;;;19.50;13.00;;;;;;;2.13;100.00;102016.70;105767;1258;97908;-75
2023/01/22 11:13:20;;;;;;;25.30;13.70;;;;;;;2.15;100.00;102013.92;105220;1267;97951;-76
2023/01/22 11:16:12;;;;;;;25.90;13.10;;;;;;;2.15;100.00;102017.10;105279;1257;97962;-75
2023/01/22 11:18:59;;;;;;;26.40;14.20;;;;;;;2.13;100.00;102014.93;105283;1257;101963;-76
2023/01/22 11:21:49;;;;;;;24.40;13.70;;;;;;;2.14;100.00;102014.37;105275;1260;100309;-73
2023/01/22 11:24:45;;;;;;;24.90;13.40;;;;;;;2.14;100.00;102014.01;105406;1257;97872;-74
2023/01/22 11:27:47;;;;;;;25.70;13.80;;;;;;;2.13;100.00;102015.65;105334;1257;98174;-74
2023/01/22 11:30:48;;;;;;;24.50;15.00;;;;;;;2.12;100.00;102012.40;105234;1260;99265;-74
2023/01/22 11:34:18;;;;;;;25.00;14.20;;;;;;;2.12;100.00;102010.12;105572;1257;101313;-75
2023/01/22 11:37:32;;;;;;;24.30;14.70;;;;;;;2.11;100.00;102010.52;105372;1259;99375;-74
2023/01/22 11:40:27;;;;;;;27.20;15.00;;;;;;;2.10;100.00;102011.81;105250;1255;98957;-74
2023/01/22 11:43:37;;;;;;;28.50;15.00;;;;;;;2.10;100.00;102010.36;105210;1260;97941;-75
2023/01/22 11:46:44;;;;;;;29.50;14.90;;;;;;;2.11;100.00;102010.67;105174;1257;98472;-75
2023/01/22 11:49:52;;;;;;;27.10;15.10;;;;;;;2.12;100.00;102009.89;105261;1259;102100;-74
2023/01/22 11:52:58;;;;;;;27.40;15.40;;;;;;;2.11;100.00;102009.08;105325;1257;99210;-75
2023/01/22 11:56:27;;;;;;;27.50;15.30;;;;;;;2.11;100.00;102010.89;105266;1260;98538;-75
2023/01/22 11:59:52;;;;;;;29.00;16.10;;;;;;;2.09;100.00;102007.51;105188;1257;97970;-74
2023/01/22 12:02:55;;;;;;;28.40;15.80;;;;;;;2.08;100.00;102005.95;105400;1257;98061;-75
2023/01/22 12:06:05;;;;;;;29.60;15.60;;;;;;;2.09;100.00;102005.71;105515;1260;102407;-75
2023/01/22 12:09:20;;;;;;;26.30;14.30;;;;;;;2.10;100.00;102009.66;105431;1260;99220;-74
2023/01/22 12:12:27;;;;;;;27.60;15.20;;;;;;;2.10;100.00;102014.25;105382;1260;99122;-74
2023/01/22 12:15:42;;;;;;;28.70;15.60;;;;;;;2.09;100.00;102014.67;105457;1257;97846;-74
2023/01/22 12:18:49;;;;;;;33.20;17.10;;;;;;;2.08;100.00;102012.13;105354;1257;99762;-73
2023/01/22 12:21:58;;;;;;;27.60;15.10;;;;;;;2.07;100.00;102009.55;105363;1258;101339;-73
2023/01/22 12:24:53;;;;;;;26.50;14.40;;;;;;;2.07;100.00;102011.13;105432;1260;100964;-74
2023/01/22 12:27:49;;;;;;;36.00;16.80;;;;;;;2.06;100.00;102014.52;105389;1260;98944;-74
2023/01/22 12:30:55;;;;;;;30.40;15.40;;;;;;;2.07;100.00;102019.58;105356;1258;97967;-74
2023/01/22 12:33:41;;;;;;;26.20;15.00;;;;;;;2.07;100.00;102014.63;105403;1257;98952;-74
2023/01/22 12:36:27;;;;;;;29.90;15.20;;;;;;;2.06;100.00;102019.08;105377;1257;101418;-75
2023/01/22 12:39:25;;;;;;;31.30;16.20;;;;;;;2.07;100.00;102020.63;105657;1257;99259;-74
2023/01/22 12:42:27;;;;;;;29.00;14.60;;;;;;;2.08;100.00;102019.33;105394;1258;98730;-75
2023/01/22 12:45:22;;;;;;;;;;;;;;;2.09;100.00;102022.98;105428;1257;97865;-72
2023/01/22 12:48:20;;;;;;;32.50;17.30;;;;;;;2.07;100.00;102021.66;105292;1259;97948;-74